Time;durP1;ratioP1;P1;durP2;ratioP2;P2;SDS_P1;SDS_P2;PMS_P1;PMS_P2;Temp;Humidity;BMP_temperature;BMP_pressure;BME280_temperature;BME280_humidity;BME280_pressure;Samples;Min_cycle;Max_cycle;Signal;HPM_P1;HPM_P2
2022/06/02 00:02:08;;;;;;;4.20;2.30;;;;;;;14.81;58.44;96678.27;107634;1268;43042;-72
2022/06/02 00:04:47;;;;;;;7.30;2.60;;;;;;;14.90;58.24;96675.20;107714;1267;26129;-72
2022/06/02 00:07:28;;;;;;;4.90;2.50;;;;;;;14.92;58.18;96674.63;107615;1268;46758;-72
2022/06/02 00:10:06;;;;;;;3.60;2.60;;;;;;;14.88;58.26;96670.35;107583;1267;39634;-72
2022/06/02 00:12:47;;;;;;;3.40;2.70;;;;;;;14.84;58.33;96671.88;107647;1268;42303;-72
2022/06/02 00:15:26;;;;;;;4.50;2.80;;;;;;;14.83;58.24;96667.80;107643;1268;29026;-71
2022/06/02 00:18:07;;;;;;;3.90;2.50;;;;;;;14.80;58.40;96659.86;107686;1267;46734;-72
2022/06/02 00:20:50;;;;;;;3.90;2.10;;;;;;;14.78;58.85;96656.80;107590;1268;35429;-72
2022/06/02 00:23:37;;;;;;;3.10;2.00;;;;;;;14.77;58.89;96660.40;107655;1268;33368;-72
2022/06/02 00:26:32;;;;;;;3.40;2.40;;;;;;;14.79;58.76;96663.31;107628;1267;45953;-72
2022/06/02 00:29:14;;;;;;;3.00;2.20;;;;;;;14.80;59.05;96658.64;107602;1269;31209;-72
2022/06/02 00:31:54;;;;;;;2.70;2.30;;;;;;;14.80;59.04;96658.36;107568;1268;46189;-72
2022/06/02 00:34:35;;;;;;;3.30;2.20;;;;;;;14.81;59.24;96659.05;107689;1266;32750;-71
2022/06/02 00:37:22;;;;;;;5.30;2.40;;;;;;;14.80;58.98;96651.42;107621;1267;39443;-72
2022/06/02 00:39:54;;;;;;;4.90;2.20;;;;;;;14.82;58.72;96657.84;107645;1268;42414;-72
2022/06/02 00:42:41;;;;;;;3.70;1.80;;;;;;;14.83;58.32;96664.81;107676;1268;45846;-73
2022/06/02 00:45:15;;;;;;;2.40;2.10;;;;;;;14.88;58.02;96653.63;107660;1268;34265;-72
2022/06/02 00:47:53;;;;;;;3.70;2.00;;;;;;;14.96;57.68;96650.73;107537;1268;33457;-72
2022/06/02 00:50:43;;;;;;;3.40;1.80;;;;;;;15.00;57.63;96653.92;107540;1268;38319;-72
2022/06/02 00:53:21;;;;;;;4.50;1.80;;;;;;;15.01;57.49;96651.76;107616;1267;32693;-72
2022/06/02 00:59:08;;;;;;;2.60;1.80;;;;;;;15.11;57.13;96646.30;107683;1267;42758;-72
2022/06/02 01:01:39;;;;;;;3.10;2.00;;;;;;;15.13;56.66;96645.27;107539;1269;46753;-72
2022/06/02 01:04:13;;;;;;;4.00;1.80;;;;;;;15.21;56.17;96639.40;107640;1268;34642;-72
2022/06/02 01:07:12;;;;;;;2.80;2.20;;;;;;;15.26;55.99;96634.30;107589;1268;46682;-72
2022/06/02 01:10:10;;;;;;;2.70;2.00;;;;;;;15.25;55.71;96634.27;107705;1267;31545;-72
2022/06/02 01:13:05;;;;;;;4.50;2.20;;;;;;;15.27;55.67;96625.80;107708;1267;45792;-72
2022/06/02 01:15:50;;;;;;;3.80;2.00;;;;;;;15.26;56.02;96622.18;107577;1268;38317;-73
2022/06/02 01:18:39;;;;;;;3.20;1.90;;;;;;;15.22;55.78;96621.29;107659;1268;34814;-72
2022/06/02 01:21:32;;;;;;;2.30;1.70;;;;;;;15.24;55.51;96616.58;107582;1268;44493;-73
2022/06/02 01:24:21;;;;;;;3.20;2.00;;;;;;;15.21;56.08;96615.38;107719;1268;59265;-73
2022/06/02 01:27:13;;;;;;;2.30;2.10;;;;;;;15.14;56.56;96616.34;107650;1268;43551;-72
2022/06/02 01:30:05;;;;;;;2.50;1.60;;;;;;;15.09;56.31;96613.02;107612;1268;41969;-72
2022/06/02 01:32:44;;;;;;;2.40;2.10;;;;;;;15.13;55.84;96613.45;107561;1268;55978;-73
2022/06/02 01:35:25;;;;;;;4.50;1.50;;;;;;;15.21;55.75;96608.86;107582;1267;39547;-72
2022/06/02 01:38:05;;;;;;;3.40;1.80;;;;;;;15.31;55.24;96615.39;107624;1268;32111;-72
2022/06/02 01:40:46;;;;;;;4.90;2.60;;;;;;;15.57;54.94;96631.30;107472;1268;86319;-72
2022/06/02 01:43:23;;;;;;;4.10;2.60;;;;;;;15.81;54.99;96638.02;107574;1268;33995;-72
2022/06/02 01:46:23;;;;;;;6.00;3.00;;;;;;;15.91;55.27;96645.39;107790;1268;40833;-72
2022/06/02 01:49:06;;;;;;;4.70;3.20;;;;;;;15.82;57.24;96647.94;107730;1270;42512;-73
2022/06/02 01:51:50;;;;;;;4.60;3.00;;;;;;;15.68;58.38;96657.42;107535;1268;46332;-72
2022/06/02 01:54:32;;;;;;;4.60;2.90;;;;;;;15.57;60.50;96665.93;107675;1268;32264;-72
2022/06/02 01:57:13;;;;;;;6.20;2.50;;;;;;;15.42;61.25;96675.29;107595;1268;53763;-72
2022/06/02 02:00:01;;;;;;;4.10;3.00;;;;;;;15.30;62.15;96679.98;107544;1268;82769;-72
2022/06/02 02:02:43;;;;;;;4.90;2.90;;;;;;;15.21;63.41;96686.02;107614;1268;47170;-71
2022/06/02 02:05:28;;;;;;;3.50;2.60;;;;;;;15.15;64.54;96691.61;107625;1268;65043;-72
2022/06/02 02:08:19;;;;;;;6.10;2.50;;;;;;;15.10;65.52;96696.48;107588;1269;36935;-74
2022/06/02 02:10:59;;;;;;;4.60;2.70;;;;;;;15.04;66.46;96686.54;107616;1269;45585;-72
2022/06/02 02:13:41;;;;;;;3.80;2.60;;;;;;;15.00;66.86;96678.92;107639;1268;40663;-73
2022/06/02 02:16:34;;;;;;;5.10;2.90;;;;;;;14.98;66.71;96684.00;107637;1267;51327;-72
2022/06/02 02:19:17;;;;;;;4.70;3.10;;;;;;;14.92;66.77;96679.59;107659;1269;32120;-73
2022/06/02 02:22:01;;;;;;;3.00;2.70;;;;;;;14.85;67.66;96677.09;107657;1268;46913;-72
2022/06/02 02:24:47;;;;;;;3.70;2.20;;;;;;;14.77;68.20;96682.34;107550;1269;40780;-72
2022/06/02 02:27:28;;;;;;;3.90;1.80;;;;;;;14.70;68.84;96676.21;107588;1268;41205;-72
2022/06/02 02:30:07;;;;;;;3.40;2.30;;;;;;;14.67;69.38;96675.64;107741;1268;32959;-72
2022/06/02 02:32:47;;;;;;;3.40;2.90;;;;;;;14.65;69.19;96673.66;107671;1267;42742;-72
2022/06/02 02:35:26;;;;;;;4.90;2.70;;;;;;;14.68;68.73;96677.83;107654;1267;46228;-72
2022/06/02 02:38:04;;;;;;;3.90;2.70;;;;;;;14.70;68.53;96686.25;107722;1267;41396;-72
2022/06/02 02:40:43;;;;;;;3.10;2.20;;;;;;;14.70;68.46;96700.19;107653;1268;39352;-72
2022/06/02 02:43:20;;;;;;;2.90;2.60;;;;;;;14.70;68.38;96706.53;107629;1267;41300;-72
2022/06/02 02:46:06;;;;;;;3.70;2.70;;;;;;;14.67;68.62;96706.92;107594;1267;39683;-72
2022/06/02 02:48:51;;;;;;;3.40;2.60;;;;;;;14.63;68.72;96710.36;107560;1268;43635;-72
2022/06/02 02:51:34;;;;;;;5.10;2.60;;;;;;;14.62;68.65;96708.45;107589;1268;42753;-72
2022/06/02 02:54:10;;;;;;;4.20;2.80;;;;;;;14.61;68.68;96708.86;107589;1268;36128;-73
2022/06/02 02:56:50;;;;;;;3.40;2.70;;;;;;;14.62;68.68;96709.84;107536;1268;41867;-72
2022/06/02 02:59:28;;;;;;;;;;;;;;;14.65;68.77;96713.38;107647;1268;34564;-72
2022/06/02 03:02:09;;;;;;;4.40;2.50;;;;;;;14.69;68.62;96716.54;107633;1268;44943;-72
2022/06/02 03:04:51;;;;;;;3.40;1.90;;;;;;;14.71;68.82;96718.62;107567;1268;51144;-72
2022/06/02 03:07:25;;;;;;;3.00;1.80;;;;;;;14.69;69.44;96723.36;107570;1267;45326;-72
2022/06/02 03:10:05;;;;;;;2.10;1.60;;;;;;;14.65;70.22;96722.45;107702;1268;38678;-72
2022/06/02 03:12:45;;;;;;;;;;;;;;;14.62;70.46;96721.55;107696;1269;32451;-72
2022/06/02 03:15:25;;;;;;;2.60;1.70;;;;;;;14.55;70.71;96719.56;107555;1268;47315;-72
2022/06/02 03:18:32;;;;;;;5.80;1.70;;;;;;;14.51;70.97;96717.96;107697;1268;27921;-71
2022/06/02 03:21:15;;;;;;;1.50;1.30;;;;;;;14.51;70.88;96722.45;107589;1268;41757;-72
2022/06/02 03:24:08;;;;;;;3.40;1.70;;;;;;;14.51;70.88;96717.11;107589;1267;40698;-72
2022/06/02 03:26:50;;;;;;;2.40;1.30;;;;;;;14.52;70.65;96719.53;107582;1268;44445;-72
2022/06/02 03:29:40;;;;;;;4.80;2.00;;;;;;;14.53;70.88;96715.23;107701;1268;28725;-71
2022/06/02 03:32:20;;;;;;;3.10;1.90;;;;;;;14.54;70.73;96721.46;107580;1268;32444;-72
2022/06/02 03:35:00;;;;;;;2.30;1.50;;;;;;;14.54;70.63;96723.27;107499;1268;49083;-72
2022/06/02 03:37:48;;;;;;;2.00;1.60;;;;;;;14.61;70.12;96723.20;107530;1268;45898;-73
2022/06/02 03:40:36;;;;;;;2.30;1.70;;;;;;;14.68;69.88;96729.81;107625;1268;44508;-72
2022/06/02 03:43:14;;;;;;;2.40;1.80;;;;;;;14.70;69.79;96724.45;107605;1267;45213;-72
2022/06/02 03:46:04;;;;;;;2.40;2.20;;;;;;;14.71;69.68;96725.25;107713;1268;28094;-72
2022/06/02 03:49:01;;;;;;;2.20;2.00;;;;;;;14.72;69.96;96722.21;107569;1268;43161;-72
2022/06/02 03:51:41;;;;;;;3.10;2.50;;;;;;;14.75;69.93;96722.04;107602;1267;34573;-73
2022/06/02 03:54:33;;;;;;;;;;;;;;;14.75;70.09;96722.35;107547;1268;76384;-72
2022/06/02 03:57:22;;;;;;;3.70;2.00;;;;;;;14.71;70.22;96725.51;107589;1268;42875;-72
2022/06/02 04:00:09;;;;;;;2.40;2.20;;;;;;;14.70;70.37;96729.54;107662;1268;32213;-72
2022/06/02 04:02:48;;;;;;;2.40;2.20;;;;;;;14.67;70.61;96731.63;107626;1268;53837;-72
2022/06/02 04:05:46;;;;;;;1.90;1.70;;;;;;;14.69;70.72;96735.97;107713;1268;30303;-72
2022/06/02 04:08:40;;;;;;;3.50;2.10;;;;;;;14.66;70.72;96737.33;107603;1268;66291;-72
2022/06/02 04:11:27;;;;;;;4.20;2.20;;;;;;;14.63;71.01;96735.07;107523;1270;44222;-71
2022/06/02 04:14:08;;;;;;;2.90;2.10;;;;;;;14.58;71.16;96724.89;107694;1268;36999;-71
2022/06/02 04:16:55;;;;;;;4.60;2.00;;;;;;;14.59;71.24;96728.88;107698;1268;39529;-72
2022/06/02 04:23:11;;;;;;;2.70;2.00;;;;;;;14.61;71.40;96727.23;107780;1268;39673;-72
2022/06/02 04:25:52;;;;;;;2.60;2.00;;;;;;;14.64;71.45;96727.31;107681;1268;40148;-72
2022/06/02 04:28:35;;;;;;;3.00;2.00;;;;;;;14.65;71.32;96729.44;107722;1269;32533;-72
2022/06/02 04:31:16;;;;;;;2.30;2.00;;;;;;;14.61;71.47;96743.30;107711;1267;44580;-72
2022/06/02 04:33:53;;;;;;;3.90;2.00;;;;;;;14.52;71.97;96751.80;107768;1267;31156;-72
2022/06/02 04:36:34;;;;;;;3.00;2.20;;;;;;;14.48;72.06;96763.14;107766;1268;35400;-72
2022/06/02 04:39:19;;;;;;;2.50;1.70;;;;;;;14.43;72.33;96766.33;107799;1268;31573;-72
2022/06/02 04:41:58;;;;;;;4.10;2.30;;;;;;;14.39;72.22;96767.64;107742;1269;39090;-72
2022/06/02 04:44:37;;;;;;;2.30;1.90;;;;;;;14.38;72.24;96761.73;107874;1267;32064;-71
2022/06/02 04:47:19;;;;;;;2.20;1.80;;;;;;;14.38;72.58;96767.29;107703;1268;42387;-72
2022/06/02 04:50:00;;;;;;;2.10;1.70;;;;;;;14.35;72.81;96774.48;107802;1268;28519;-71
2022/06/02 04:52:42;;;;;;;2.10;1.70;;;;;;;14.32;72.77;96771.29;107671;1268;66398;-72
2022/06/02 04:55:25;;;;;;;3.80;2.20;;;;;;;14.30;73.12;96771.17;107612;1268;37081;-72
2022/06/02 04:58:05;;;;;;;3.40;3.00;;;;;;;14.25;73.53;96773.83;107654;1269;42403;-72
2022/06/02 05:00:43;;;;;;;3.30;2.00;;;;;;;14.20;73.86;96777.05;107627;1268;46363;-72
2022/06/02 05:03:21;;;;;;;2.40;2.00;;;;;;;14.17;74.60;96785.55;107629;1268;29254;-72
2022/06/02 05:06:01;;;;;;;3.20;2.20;;;;;;;14.11;75.01;96780.89;107556;1269;44942;-72
2022/06/02 05:08:45;;;;;;;2.30;2.00;;;;;;;14.07;75.38;96779.52;107619;1268;39863;-72
2022/06/02 05:11:26;;;;;;;2.60;2.30;;;;;;;14.07;75.83;96785.11;107582;1268;36623;-72
2022/06/02 05:14:10;;;;;;;2.70;2.10;;;;;;;14.05;76.17;96784.13;107740;1267;29313;-72
2022/06/02 05:16:55;;;;;;;2.40;1.80;;;;;;;14.02;76.48;96774.69;107686;1267;40528;-72
2022/06/02 05:19:45;;;;;;;1.80;1.70;;;;;;;14.01;76.81;96783.30;107705;1268;38130;-72
2022/06/02 05:22:46;;;;;;;3.30;2.00;;;;;;;13.97;77.07;96785.58;107626;1268;39674;-72
2022/06/02 05:25:32;;;;;;;;;;;;;;;13.99;77.53;96794.02;107587;1268;33362;-72
2022/06/02 05:28:33;;;;;;;3.90;2.50;;;;;;;13.98;78.17;96806.23;107594;1268;37720;-72
2022/06/02 05:31:36;;;;;;;4.00;2.90;;;;;;;13.89;78.60;96820.02;107558;1268;46788;-72
2022/06/02 05:34:30;;;;;;;3.50;2.40;;;;;;;13.83;79.02;96825.59;107595;1268;36993;-71
2022/06/02 05:37:20;;;;;;;3.10;2.00;;;;;;;13.82;79.56;96820.92;107667;1268;32295;-72
2022/06/02 05:40:16;;;;;;;3.30;2.20;;;;;;;13.85;79.89;96824.13;107651;1268;40836;-71
2022/06/02 05:43:07;;;;;;;3.70;2.20;;;;;;;13.89;80.49;96829.05;107647;1268;41534;-71
2022/06/02 05:45:57;;;;;;;4.10;2.60;;;;;;;13.94;80.76;96825.27;107622;1268;36456;-72
2022/06/02 05:48:45;;;;;;;5.40;3.40;;;;;;;13.85;81.10;96816.53;107667;1268;32332;-71
2022/06/02 05:51:27;;;;;;;4.40;2.50;;;;;;;13.78;81.30;96819.80;107640;1268;45747;-71
2022/06/02 05:54:14;;;;;;;4.50;3.00;;;;;;;13.79;81.14;96814.94;107691;1267;43642;-71
2022/06/02 05:56:54;;;;;;;4.00;2.90;;;;;;;13.82;81.14;96808.27;107602;1267;34115;-72
2022/06/02 05:59:48;;;;;;;4.20;2.70;;;;;;;13.90;81.10;96810.73;107712;1268;32197;-71
2022/06/02 06:02:40;;;;;;;4.00;2.50;;;;;;;13.95;80.86;96812.10;107713;1267;37914;-71
2022/06/02 06:05:17;;;;;;;3.90;2.60;;;;;;;13.95;81.01;96821.76;107535;1270;36550;-71
2022/06/02 06:08:14;;;;;;;2.80;2.20;;;;;;;13.88;81.20;96826.92;107696;1268;33589;-71
2022/06/02 06:10:54;;;;;;;5.80;2.20;;;;;;;13.80;81.51;96826.80;107614;1268;33895;-71
2022/06/02 06:13:46;;;;;;;5.00;2.80;;;;;;;13.78;81.77;96826.41;107709;1268;31382;-71
2022/06/02 06:16:24;;;;;;;7.30;3.50;;;;;;;13.72;82.32;96834.09;107635;1270;37993;-72
2022/06/02 06:19:09;;;;;;;6.00;3.40;;;;;;;13.63;82.56;96836.20;107695;1268;31610;-72
2022/06/02 06:21:59;;;;;;;4.50;3.30;;;;;;;13.55;82.85;96834.05;107561;1270;39347;-72
2022/06/02 06:24:58;;;;;;;4.60;3.30;;;;;;;13.55;83.41;96838.31;107580;1270;34769;-72
2022/06/02 06:27:41;;;;;;;5.40;3.40;;;;;;;13.59;83.63;96845.23;107581;1270;47803;-73
2022/06/02 06:30:24;;;;;;;3.80;3.10;;;;;;;13.64;83.95;96847.42;107641;1268;41320;-73
2022/06/02 06:33:06;;;;;;;4.80;3.10;;;;;;;13.68;84.32;96847.87;107699;1270;32003;-71
2022/06/02 06:35:51;;;;;;;5.00;2.70;;;;;;;13.71;84.12;96848.97;107640;1267;42501;-72
2022/06/02 06:38:39;;;;;;;4.70;2.40;;;;;;;13.76;83.91;96849.73;107633;1268;32910;-72
2022/06/02 06:41:24;;;;;;;3.50;2.50;;;;;;;13.79;83.81;96844.09;107588;1268;37185;-72
2022/06/02 06:44:09;;;;;;;4.20;2.50;;;;;;;13.85;84.06;96831.46;107675;1270;30832;-72
2022/06/02 06:46:49;;;;;;;4.00;3.00;;;;;;;13.85;84.05;96830.08;107593;1268;36082;-73
2022/06/02 06:49:28;;;;;;;4.60;3.20;;;;;;;13.81;84.32;96832.13;107655;1268;32837;-72
2022/06/02 06:52:13;;;;;;;4.90;3.10;;;;;;;13.76;84.99;96836.15;107626;1268;48516;-72
2022/06/02 06:54:52;;;;;;;4.40;3.60;;;;;;;13.66;85.45;96835.52;107622;1269;31797;-72
2022/06/02 06:57:31;;;;;;;3.40;2.60;;;;;;;13.65;85.84;96836.55;107619;1271;40029;-72
2022/06/02 07:00:08;;;;;;;4.00;2.80;;;;;;;13.72;86.45;96838.92;107630;1268;34765;-71
2022/06/02 07:02:51;;;;;;;4.90;3.40;;;;;;;13.82;86.41;96833.17;107608;1268;38054;-71
2022/06/02 07:05:27;;;;;;;4.00;3.30;;;;;;;13.98;86.19;96844.61;107645;1268;35994;-71
2022/06/02 07:08:06;;;;;;;4.30;3.30;;;;;;;14.10;85.87;96852.83;107681;1268;31854;-72
2022/06/02 07:10:45;;;;;;;5.40;3.20;;;;;;;14.14;85.59;96851.56;107626;1268;42908;-72
2022/06/02 07:13:28;;;;;;;5.60;3.10;;;;;;;14.20;85.53;96852.58;107647;1268;43543;-72
2022/06/02 07:16:04;;;;;;;3.40;3.00;;;;;;;14.35;85.63;96853.54;107717;1269;40419;-72
2022/06/02 07:18:46;;;;;;;3.10;2.80;;;;;;;14.43;85.41;96854.23;107642;1270;30844;-72
2022/06/02 07:21:28;;;;;;;6.00;3.10;;;;;;;14.61;85.01;96860.27;107636;1268;40159;-72
2022/06/02 07:24:10;;;;;;;4.40;2.60;;;;;;;14.83;84.23;96865.46;107634;1268;37238;-72
2022/06/02 07:26:58;;;;;;;5.50;3.20;;;;;;;14.97;83.72;96865.65;107595;1268;42263;-72
2022/06/02 07:29:52;;;;;;;3.60;2.60;;;;;;;15.17;83.90;96869.77;107704;1268;39486;-72
2022/06/02 07:33:02;;;;;;;3.00;2.70;;;;;;;15.38;83.59;96871.42;107709;1268;28998;-72
2022/06/02 07:36:08;;;;;;;3.50;2.50;;;;;;;15.61;83.12;96866.73;107666;1268;46195;-72
2022/06/02 07:38:57;;;;;;;2.40;2.20;;;;;;;15.87;82.59;96871.61;107581;1269;45283;-72
2022/06/02 07:41:44;;;;;;;3.10;2.80;;;;;;;16.16;82.03;96874.55;107710;1268;39487;-72
2022/06/02 07:44:35;;;;;;;3.30;2.80;;;;;;;16.68;81.66;96877.27;107618;1268;51953;-72
2022/06/02 07:47:33;;;;;;;3.40;2.60;;;;;;;16.94;80.77;96885.60;107681;1271;36698;-71
2022/06/02 07:50:13;;;;;;;5.40;2.70;;;;;;;16.95;79.95;96882.79;107415;1268;338620;-72
2022/06/02 07:52:54;;;;;;;2.20;2.00;;;;;;;16.94;79.66;96884.30;107732;1270;33830;-72
2022/06/02 07:55:32;;;;;;;3.70;2.20;;;;;;;16.89;77.86;96887.22;107700;1268;44420;-71
2022/06/02 07:58:21;;;;;;;3.70;2.20;;;;;;;16.95;77.76;96891.56;107714;1268;37736;-71
2022/06/02 08:00:58;;;;;;;3.10;1.90;;;;;;;17.61;76.20;96896.18;107609;1269;40664;-72
2022/06/02 08:03:53;;;;;;;2.10;1.90;;;;;;;18.30;75.91;96900.04;107655;1268;32893;-72
2022/06/02 08:06:34;;;;;;;3.40;2.10;;;;;;;19.65;71.57;96903.05;107585;1268;35299;-72
2022/06/02 08:09:40;;;;;;;2.80;2.00;;;;;;;20.44;68.14;96904.61;107589;1268;34248;-72
2022/06/02 08:12:21;;;;;;;2.00;1.80;;;;;;;21.28;68.00;96898.90;107566;1268;39621;-72
2022/06/02 08:15:05;;;;;;;3.60;2.30;;;;;;;22.18;62.96;96905.74;107500;1269;42609;-72
2022/06/02 08:17:44;;;;;;;2.50;2.30;;;;;;;21.23;62.61;96903.73;107551;1268;43587;-73
2022/06/02 08:20:32;;;;;;;4.00;1.90;;;;;;;20.97;62.65;96908.86;107649;1268;25987;-72
2022/06/02 08:23:15;;;;;;;3.30;2.10;;;;;;;20.56;63.26;96916.84;107486;1268;48188;-72
2022/06/02 08:25:59;;;;;;;3.30;2.50;;;;;;;19.97;63.87;96918.67;107562;1268;46086;-72
2022/06/02 08:28:50;;;;;;;2.80;2.30;;;;;;;19.57;64.61;96920.15;107524;1267;41662;-72
2022/06/02 08:31:41;;;;;;;2.70;2.40;;;;;;;19.33;66.18;96919.31;107503;1268;39727;-72
2022/06/02 08:34:21;;;;;;;3.10;2.20;;;;;;;19.03;65.00;96917.63;107487;1268;42109;-72
2022/06/02 08:37:11;;;;;;;3.00;2.20;;;;;;;18.71;66.15;96920.90;107545;1268;32193;-72
2022/06/02 08:39:49;;;;;;;;;;;;;;;18.50;66.22;96924.30;107538;1268;50523;-72
2022/06/02 08:42:56;;;;;;;2.60;2.30;;;;;;;18.45;67.03;96926.23;107537;1267;39907;-72
2022/06/02 08:45:46;;;;;;;2.90;2.60;;;;;;;18.25;66.83;96935.33;107572;1268;41346;-72
2022/06/02 08:48:47;;;;;;;3.30;2.70;;;;;;;18.26;67.48;96936.17;107550;1268;32712;-72
2022/06/02 08:52:09;;;;;;;3.90;2.90;;;;;;;18.41;67.64;96935.00;107564;1268;42957;-72
2022/06/02 08:55:22;;;;;;;4.50;2.60;;;;;;;18.44;67.91;96935.84;107534;1268;43270;-72
2022/06/02 08:58:21;;;;;;;3.10;2.50;;;;;;;18.55;68.13;96939.23;107577;1268;31293;-72
2022/06/02 09:01:03;;;;;;;3.40;2.70;;;;;;;18.48;67.09;96938.33;107566;1268;38861;-72
2022/06/02 09:04:09;;;;;;;3.20;2.20;;;;;;;18.37;67.51;96945.12;107492;1268;41168;-73
2022/06/02 09:07:31;;;;;;;2.00;1.80;;;;;;;18.61;67.10;96945.40;107441;1268;48464;-72
2022/06/02 09:10:29;;;;;;;1.80;1.60;;;;;;;19.00;65.55;96937.91;107492;1268;41425;-73
2022/06/02 09:13:47;;;;;;;2.50;1.40;;;;;;;19.17;63.41;96946.91;107686;1268;41886;-72
2022/06/02 09:16:34;;;;;;;2.20;1.40;;;;;;;18.94;62.16;96959.04;107541;1268;37054;-72
2022/06/02 09:19:36;;;;;;;2.60;1.30;;;;;;;18.84;62.29;96956.27;107515;1268;48723;-71
2022/06/02 09:22:31;;;;;;;2.20;1.70;;;;;;;18.94;62.24;96956.28;107594;1268;33769;-73
2022/06/02 09:25:17;;;;;;;2.00;1.50;;;;;;;18.86;61.72;96956.95;107405;1271;49674;-72
2022/06/02 09:28:07;;;;;;;2.30;1.70;;;;;;;18.98;63.12;96959.02;107595;1268;49759;-73
2022/06/02 09:30:51;;;;;;;4.20;2.00;;;;;;;19.43;63.53;96961.83;107542;1269;36461;-73
2022/06/02 09:33:56;;;;;;;3.40;2.00;;;;;;;19.52;62.54;96963.21;107548;1268;43636;-73
2022/06/02 09:37:03;;;;;;;2.70;2.00;;;;;;;19.74;63.89;96962.05;107651;1268;31446;-73
2022/06/02 09:39:56;;;;;;;3.70;2.50;;;;;;;19.94;61.86;96963.77;107610;1268;52065;-73
2022/06/02 09:42:42;;;;;;;3.70;2.20;;;;;;;19.86;61.89;96967.40;107608;1268;45863;-73
2022/06/02 09:45:39;;;;;;;4.20;2.20;;;;;;;19.77;61.38;96968.67;107544;1268;42265;-73
2022/06/02 09:48:30;;;;;;;2.40;2.20;;;;;;;19.70;61.77;96970.98;107504;1268;47445;-73
2022/06/02 09:51:24;;;;;;;2.60;2.20;;;;;;;19.56;61.66;96976.21;107585;1268;32977;-74
2022/06/02 09:54:18;;;;;;;2.50;2.10;;;;;;;19.17;61.95;96985.60;107507;1268;43448;-73
2022/06/02 10:00:26;;;;;;;3.30;2.40;;;;;;;18.60;63.26;96991.24;107538;1268;29811;-73
2022/06/02 10:03:17;;;;;;;3.30;3.00;;;;;;;18.38;63.89;96992.45;107651;1268;34583;-73
2022/06/02 10:06:07;;;;;;;4.80;2.50;;;;;;;18.46;64.55;96985.49;107526;1268;38429;-73
2022/06/02 10:08:53;;;;;;;4.30;2.70;;;;;;;19.21;65.20;96979.19;107504;1268;44926;-73
2022/06/02 10:11:35;;;;;;;2.80;2.30;;;;;;;20.13;65.14;96977.55;107582;1268;29400;-73
2022/06/02 10:14:32;;;;;;;3.40;2.20;;;;;;;20.88;63.75;96967.56;107564;1268;43054;-73
2022/06/02 10:17:32;;;;;;;2.90;2.10;;;;;;;20.99;60.83;96967.91;107519;1268;53880;-74
2022/06/02 10:20:19;;;;;;;;;;;;;;;20.72;60.11;96966.58;107637;1268;32192;-73
2022/06/02 10:23:00;;;;;;;5.00;2.50;;;;;;;20.43;59.48;96965.91;107538;1268;45293;-73
2022/06/02 10:26:03;;;;;;;2.50;2.10;;;;;;;20.10;59.31;96969.50;107562;1268;43011;-74
2022/06/02 10:29:09;;;;;;;4.30;2.30;;;;;;;20.25;60.06;96973.17;107458;1268;60328;-73
2022/06/02 10:32:15;;;;;;;2.20;1.90;;;;;;;20.74;60.07;96966.19;107530;1268;37780;-73
2022/06/02 10:35:15;;;;;;;2.40;2.20;;;;;;;21.10;59.10;96961.48;107505;1268;37300;-73
2022/06/02 10:38:14;;;;;;;3.30;2.30;;;;;;;21.27;59.23;96962.48;107477;1269;44848;-73
2022/06/02 10:41:11;;;;;;;3.50;2.60;;;;;;;21.69;57.68;96967.37;107503;1268;36789;-73
2022/06/02 10:44:12;;;;;;;2.90;2.10;;;;;;;21.76;56.57;96969.67;107564;1268;40407;-73
2022/06/02 10:47:19;;;;;;;2.50;2.00;;;;;;;21.67;55.47;96965.31;107587;1268;33994;-73
2022/06/02 10:50:09;;;;;;;2.70;1.90;;;;;;;21.93;56.76;96962.73;107389;1268;49139;-73
2022/06/02 10:53:20;;;;;;;6.90;2.00;;;;;;;22.24;55.69;96960.23;107588;1268;33271;-71
2022/06/02 10:56:30;;;;;;;2.70;2.20;;;;;;;22.26;53.85;96963.52;107404;1270;45306;-73
2022/06/02 10:59:47;;;;;;;3.30;2.60;;;;;;;21.51;53.55;96968.70;107376;1268;50052;-73
2022/06/02 11:02:59;;;;;;;3.90;3.10;;;;;;;20.48;55.41;96977.77;107489;1270;34916;-73
2022/06/02 11:06:08;;;;;;;4.30;3.10;;;;;;;19.86;55.82;96978.73;107601;1268;48673;-72
2022/06/02 11:12:49;;;;;;;2.90;2.60;;;;;;;19.68;56.46;96969.89;104145;1306;545505;-73
2022/06/02 11:15:53;;;;;;;2.90;2.60;;;;;;;20.25;56.54;96966.63;106862;1283;40526;-73
2022/06/02 11:18:51;;;;;;;3.20;2.60;;;;;;;20.73;56.05;96971.90;106913;1283;35571;-73
2022/06/02 11:21:46;;;;;;;3.50;2.70;;;;;;;21.07;55.61;96967.39;106853;1283;39589;-73
2022/06/02 11:24:54;;;;;;;3.50;3.10;;;;;;;21.09;54.59;96972.08;106883;1283;45029;-72
2022/06/02 11:28:03;;;;;;;4.20;2.90;;;;;;;21.29;55.23;96968.42;106949;1277;39107;-72
2022/06/02 11:31:05;;;;;;;5.90;3.30;;;;;;;21.36;54.97;96973.65;107041;1277;71150;-72
2022/06/02 11:34:08;;;;;;;4.30;3.20;;;;;;;21.47;54.56;96977.98;107090;1277;47746;-72
2022/06/02 11:37:06;;;;;;;4.20;3.50;;;;;;;21.68;53.62;96979.55;107182;1277;29348;-72
2022/06/02 11:40:14;;;;;;;4.10;3.30;;;;;;;21.38;52.91;96979.48;107155;1277;33690;-72
2022/06/02 11:43:04;;;;;;;4.50;3.90;;;;;;;21.09;53.40;96984.40;107165;1277;45976;-72
2022/06/02 11:46:00;;;;;;;4.90;3.80;;;;;;;20.78;53.87;96990.48;107227;1277;43109;-73
2022/06/02 11:48:53;;;;;;;4.90;3.10;;;;;;;20.58;53.83;96985.42;107151;1277;74215;-72
2022/06/02 11:52:09;;;;;;;4.40;3.20;;;;;;;20.35;51.83;96981.15;107301;1273;44658;-72
2022/06/02 11:54:57;;;;;;;3.80;3.40;;;;;;;20.64;52.39;96979.08;107008;1279;28451;-73
2022/06/02 11:57:50;;;;;;;7.20;3.60;;;;;;;20.87;52.25;96984.55;107384;1273;42764;-72
2022/06/02 12:01:01;;;;;;;4.50;3.20;;;;;;;21.14;52.53;96987.19;107613;1270;40192;-72
2022/06/02 12:04:14;;;;;;;4.30;3.50;;;;;;;21.60;52.25;96983.27;107639;1271;38395;-72
2022/06/02 12:07:42;;;;;;;4.80;4.00;;;;;;;22.20;52.27;96979.65;107589;1270;43823;-72
2022/06/02 12:10:47;;;;;;;4.20;3.60;;;;;;;22.59;52.24;96981.23;107530;1270;60242;-72
2022/06/02 12:13:44;;;;;;;4.10;3.60;;;;;;;22.81;50.16;96989.30;107573;1270;44290;-73
2022/06/02 12:16:48;;;;;;;5.40;2.90;;;;;;;22.29;49.06;96993.09;107495;1269;100764;-72
2022/06/02 12:19:37;;;;;;;4.40;3.10;;;;;;;21.90;48.33;96996.45;107508;1269;44921;-72
2022/06/02 12:22:24;;;;;;;4.00;3.60;;;;;;;21.56;48.10;96995.90;107475;1270;66595;-72
2022/06/02 12:25:17;;;;;;;3.70;3.40;;;;;;;21.43;49.69;97000.28;107511;1270;55808;-73
2022/06/02 12:28:20;;;;;;;5.50;3.00;;;;;;;21.62;47.16;96994.15;107599;1270;28817;-72
2022/06/02 12:31:06;;;;;;;4.30;3.40;;;;;;;21.06;47.07;97007.11;107595;1270;38261;-72
2022/06/02 12:33:54;;;;;;;4.50;3.50;;;;;;;21.00;48.15;97011.41;107689;1270;49575;-73
2022/06/02 12:36:57;;;;;;;3.90;3.10;;;;;;;21.07;47.28;97002.43;107607;1270;47012;-72
2022/06/02 12:40:07;;;;;;;3.70;3.00;;;;;;;21.26;47.65;96998.34;107712;1270;48156;-72
2022/06/02 12:43:27;;;;;;;7.10;3.20;;;;;;;21.51;46.97;96995.73;107523;1268;53723;-73
2022/06/02 12:46:19;;;;;;;4.10;2.80;;;;;;;21.74;44.91;96999.61;107324;1270;48359;-72
2022/06/02 12:49:12;;;;;;;3.30;2.70;;;;;;;21.63;44.80;97006.14;107502;1270;72097;-73
2022/06/02 12:52:03;;;;;;;3.00;2.40;;;;;;;21.71;45.19;97011.69;107611;1270;33017;-73
2022/06/02 12:55:17;;;;;;;5.40;3.40;;;;;;;21.83;43.28;97013.75;107617;1270;29842;-73
2022/06/02 12:58:27;;;;;;;4.80;2.80;;;;;;;21.23;43.59;97014.20;107475;1270;44416;-73
2022/06/02 13:01:09;;;;;;;4.00;3.30;;;;;;;20.90;45.42;97015.80;107467;1270;80017;-73
2022/06/02 13:04:16;;;;;;;4.10;2.90;;;;;;;20.93;45.56;97011.77;107447;1270;49671;-74
2022/06/02 13:07:25;;;;;;;3.50;3.20;;;;;;;21.40;46.26;97013.90;107682;1270;36050;-72
2022/06/02 13:10:29;;;;;;;5.00;3.30;;;;;;;21.78;45.91;97013.37;107603;1270;34905;-72
2022/06/02 13:13:21;;;;;;;3.20;2.90;;;;;;;21.85;44.13;97015.67;107811;1270;46192;-72
2022/06/02 13:16:36;;;;;;;4.50;3.10;;;;;;;21.62;44.02;97002.79;107702;1270;36097;-72
2022/06/02 13:19:39;;;;;;;3.60;3.20;;;;;;;21.51;44.88;97006.52;107415;1271;36511;-73
2022/06/02 13:22:33;;;;;;;5.10;3.50;;;;;;;21.62;45.90;97004.55;107479;1270;47721;-73
2022/06/02 13:25:29;;;;;;;3.60;3.10;;;;;;;22.06;46.58;97008.09;107556;1270;39509;-72